TOM4EB LEIB-EGCC
Flight info
| Callsign | TOM4EB |
|---|---|
| Flight time | 2h 10m |
| Altitude | 38000 |
| Route | EPAMA N856 EBROX DCT UMURE N863 GIROM DCT AGN DCT SECHE DCT UVELI DCT CNA DCT TUPAR UY120 AKIKI UN867 AVANT UM184 HEMEL T420 ELVOS |
| Aircraft | B38M/M-SDE1FGHILORVWXY/HB1 |
Departure
| Time | 2026-05-04 19:50 |
|---|---|
| Airport | Ibiza Airport (LEIB) |
Arrival
| Time | 2026-05-04 22:01 |
|---|---|
| Airport | Manchester Airport (EGCC) |
| Time | Latitude | Longitude | Altitude | Speed | Heading |
|---|---|---|---|---|---|
| 2026-05-04 19:16 | 38.87493 | 1.37093 | 11 ft | 0 kts | 332° |
| 2026-05-04 19:45 | 38.87503 | 1.37087 | 13 ft | 3 kts | 332° |
| 2026-05-04 19:45 | 38.87531 | 1.37073 | 11 ft | 5 kts | 358° |
| 2026-05-04 19:46 | 38.87562 | 1.37106 | 12 ft | 7 kts | 56° |
| 2026-05-04 19:46 | 38.87592 | 1.37175 | 12 ft | 10 kts | 62° |
| 2026-05-04 19:46 | 38.87630 | 1.37266 | 11 ft | 13 kts | 62° |
| 2026-05-04 19:46 | 38.87678 | 1.37380 | 12 ft | 16 kts | 62° |
| 2026-05-04 19:47 | 38.87671 | 1.37495 | 11 ft | 14 kts | 148° |
| 2026-05-04 19:47 | 38.87587 | 1.37559 | 11 ft | 11 kts | 129° |
| 2026-05-04 19:47 | 38.87607 | 1.37644 | 11 ft | 11 kts | 61° |
| 2026-05-04 19:47 | 38.87651 | 1.37749 | 13 ft | 16 kts | 62° |
| 2026-05-04 19:48 | 38.87713 | 1.37895 | 11 ft | 22 kts | 62° |
| 2026-05-04 19:48 | 38.87793 | 1.38091 | 11 ft | 28 kts | 62° |
| 2026-05-04 19:48 | 38.87894 | 1.38334 | 11 ft | 33 kts | 63° |
| 2026-05-04 19:48 | 38.87983 | 1.38548 | 12 ft | 15 kts | 62° |
| 2026-05-04 19:49 | 38.87994 | 1.38637 | 12 ft | 8 kts | 144° |
| 2026-05-04 19:49 | 38.87943 | 1.38671 | 15 ft | 8 kts | 152° |
| 2026-05-04 19:49 | 38.87888 | 1.38704 | 14 ft | 9 kts | 166° |
| 2026-05-04 19:49 | 38.87841 | 1.38657 | 14 ft | 6 kts | 242° |
| 2026-05-04 19:50 | 38.87811 | 1.38583 | 16 ft | 25 kts | 242° |
| 2026-05-04 19:50 | 38.87595 | 1.38063 | 15 ft | 105 kts | 242° |
| 2026-05-04 19:50 | 38.87152 | 1.36976 | 96 ft | 161 kts | 240° |
| 2026-05-04 19:50 | 38.86640 | 1.35651 | 742 ft | 173 kts | 239° |
| 2026-05-04 19:51 | 38.86106 | 1.34297 | 1825 ft | 169 kts | 241° |
| 2026-05-04 19:51 | 38.85534 | 1.32841 | 2413 ft | 198 kts | 242° |
| 2026-05-04 19:51 | 38.84869 | 1.31146 | 2998 ft | 222 kts | 243° |
| 2026-05-04 19:51 | 38.84184 | 1.29401 | 4222 ft | 220 kts | 243° |
| 2026-05-04 19:52 | 38.83530 | 1.27576 | 5119 ft | 234 kts | 254° |
| 2026-05-04 19:52 | 38.83473 | 1.25501 | 5395 ft | 237 kts | 286° |
| 2026-05-04 19:52 | 38.84355 | 1.23741 | 6331 ft | 239 kts | 314° |
| 2026-05-04 19:52 | 38.85685 | 1.22422 | 7321 ft | 244 kts | 319° |
| 2026-05-04 19:53 | 38.87061 | 1.21105 | 8278 ft | 249 kts | 319° |
| 2026-05-04 19:53 | 38.88470 | 1.19770 | 9238 ft | 254 kts | 318° |
| 2026-05-04 19:53 | 38.89919 | 1.18408 | 10069 ft | 265 kts | 319° |
| 2026-05-04 19:53 | 38.91480 | 1.16983 | 10581 ft | 287 kts | 324° |
| 2026-05-04 19:54 | 38.93463 | 1.16119 | 11063 ft | 318 kts | 349° |
| 2026-05-04 19:54 | 38.95745 | 1.16410 | 11627 ft | 343 kts | 12° |
| 2026-05-04 19:54 | 38.98095 | 1.17224 | 12254 ft | 355 kts | 9° |
| 2026-05-04 19:54 | 39.00471 | 1.17993 | 13099 ft | 359 kts | 9° |
| 2026-05-04 19:55 | 39.02912 | 1.18795 | 13883 ft | 365 kts | 9° |
| 2026-05-04 19:55 | 39.05391 | 1.19616 | 14608 ft | 370 kts | 9° |
| 2026-05-04 19:55 | 39.07900 | 1.20450 | 15336 ft | 375 kts | 9° |
| 2026-05-04 19:55 | 39.10439 | 1.21296 | 16058 ft | 379 kts | 9° |
| 2026-05-04 19:56 | 39.13003 | 1.22150 | 16767 ft | 384 kts | 9° |
| 2026-05-04 19:56 | 39.15610 | 1.23020 | 17447 ft | 389 kts | 9° |
| 2026-05-04 19:56 | 39.18240 | 1.23898 | 18123 ft | 393 kts | 8° |
| 2026-05-04 19:56 | 39.20905 | 1.24788 | 18711 ft | 398 kts | 8° |
| 2026-05-04 19:57 | 39.23597 | 1.25689 | 19279 ft | 402 kts | 8° |
| 2026-05-04 19:57 | 39.26321 | 1.26600 | 19834 ft | 406 kts | 8° |
| 2026-05-04 19:57 | 39.29067 | 1.27520 | 20394 ft | 410 kts | 8° |
| 2026-05-04 19:57 | 39.31810 | 1.28439 | 20940 ft | 414 kts | 8° |
| 2026-05-04 19:58 | 39.34616 | 1.29380 | 21510 ft | 418 kts | 8° |
| 2026-05-04 19:58 | 39.37445 | 1.30330 | 22032 ft | 423 kts | 8° |
| 2026-05-04 19:58 | 39.40309 | 1.31293 | 22552 ft | 427 kts | 8° |
| 2026-05-04 19:58 | 39.43203 | 1.32266 | 23099 ft | 431 kts | 8° |
| 2026-05-04 19:59 | 39.46122 | 1.33248 | 23597 ft | 435 kts | 8° |
| 2026-05-04 19:59 | 39.49076 | 1.34244 | 24032 ft | 438 kts | 8° |
| 2026-05-04 19:59 | 39.52040 | 1.35243 | 24487 ft | 441 kts | 8° |
| 2026-05-04 19:59 | 39.55025 | 1.36250 | 24922 ft | 444 kts | 8° |
| 2026-05-04 20:00 | 39.58028 | 1.37262 | 25381 ft | 446 kts | 8° |
| 2026-05-04 20:00 | 39.61021 | 1.37775 | 25786 ft | 435 kts | 351° |
| 2026-05-04 20:00 | 39.64027 | 1.37462 | 26141 ft | 435 kts | 347° |
| 2026-05-04 20:00 | 39.67058 | 1.37109 | 26536 ft | 438 kts | 347° |
| 2026-05-04 20:01 | 39.70099 | 1.36730 | 26965 ft | 440 kts | 347° |
| 2026-05-04 20:01 | 39.73157 | 1.36333 | 27370 ft | 443 kts | 347° |
| 2026-05-04 20:01 | 39.76236 | 1.35927 | 27779 ft | 445 kts | 347° |
| 2026-05-04 20:01 | 39.79328 | 1.35516 | 28177 ft | 448 kts | 347° |
| 2026-05-04 20:02 | 39.82438 | 1.35103 | 28613 ft | 450 kts | 347° |
| 2026-05-04 20:02 | 39.85557 | 1.34688 | 29017 ft | 452 kts | 347° |
| 2026-05-04 20:02 | 39.88697 | 1.34269 | 29396 ft | 454 kts | 347° |
| 2026-05-04 20:02 | 39.91812 | 1.33854 | 29764 ft | 456 kts | 347° |
| 2026-05-04 20:03 | 39.94986 | 1.33431 | 30107 ft | 459 kts | 347° |
| 2026-05-04 20:03 | 39.98166 | 1.33005 | 30414 ft | 461 kts | 347° |
| 2026-05-04 20:03 | 40.01368 | 1.32577 | 30715 ft | 463 kts | 347° |
| 2026-05-04 20:03 | 40.04583 | 1.32147 | 31032 ft | 465 kts | 347° |
| 2026-05-04 20:04 | 40.07811 | 1.31714 | 31312 ft | 468 kts | 347° |
| 2026-05-04 20:04 | 40.11053 | 1.31279 | 31629 ft | 469 kts | 347° |
| 2026-05-04 20:04 | 40.14317 | 1.30841 | 31909 ft | 472 kts | 347° |
| 2026-05-04 20:04 | 40.17550 | 1.30406 | 32189 ft | 474 kts | 347° |
| 2026-05-04 20:05 | 40.20834 | 1.29965 | 32473 ft | 476 kts | 347° |
| 2026-05-04 20:05 | 40.24176 | 1.29514 | 32755 ft | 478 kts | 347° |
| 2026-05-04 20:05 | 40.27451 | 1.29073 | 33060 ft | 480 kts | 347° |
| 2026-05-04 20:05 | 40.30776 | 1.28624 | 33410 ft | 480 kts | 347° |
| 2026-05-04 20:06 | 40.34094 | 1.28176 | 33810 ft | 479 kts | 347° |
| 2026-05-04 20:06 | 40.37405 | 1.27729 | 34160 ft | 478 kts | 347° |
| 2026-05-04 20:06 | 40.40710 | 1.27282 | 34482 ft | 477 kts | 347° |
| 2026-05-04 20:06 | 40.44022 | 1.26833 | 34805 ft | 477 kts | 347° |
| 2026-05-04 20:07 | 40.47312 | 1.26387 | 35140 ft | 476 kts | 348° |
| 2026-05-04 20:07 | 40.50606 | 1.25939 | 35413 ft | 476 kts | 348° |
| 2026-05-04 20:07 | 40.53903 | 1.25491 | 35683 ft | 476 kts | 348° |
| 2026-05-04 20:07 | 40.57197 | 1.25043 | 35982 ft | 476 kts | 348° |
| 2026-05-04 20:08 | 40.60487 | 1.24595 | 36275 ft | 475 kts | 348° |
| 2026-05-04 20:08 | 40.63777 | 1.24147 | 36555 ft | 474 kts | 348° |
| 2026-05-04 20:08 | 40.67016 | 1.23705 | 36823 ft | 474 kts | 348° |
| 2026-05-04 20:08 | 40.70336 | 1.23251 | 37096 ft | 473 kts | 348° |
| 2026-05-04 20:09 | 40.73610 | 1.22804 | 37355 ft | 473 kts | 348° |
| 2026-05-04 20:09 | 40.76880 | 1.22357 | 37611 ft | 472 kts | 348° |
| 2026-05-04 20:09 | 40.80104 | 1.21915 | 37849 ft | 472 kts | 348° |
| 2026-05-04 20:09 | 40.83413 | 1.21461 | 37968 ft | 472 kts | 348° |
| 2026-05-04 20:10 | 40.86676 | 1.21013 | 37947 ft | 471 kts | 348° |
| 2026-05-04 20:10 | 40.93144 | 1.20124 | 37976 ft | 471 kts | 348° |
| 2026-05-04 20:11 | 40.99674 | 1.19225 | 37961 ft | 471 kts | 348° |
| 2026-05-04 20:11 | 41.06201 | 1.18324 | 37965 ft | 471 kts | 348° |
| 2026-05-04 20:12 | 41.12721 | 1.17423 | 37982 ft | 471 kts | 348° |
| 2026-05-04 20:12 | 41.19272 | 1.16651 | 37964 ft | 473 kts | 350° |
| 2026-05-04 20:13 | 41.25810 | 1.15980 | 37963 ft | 473 kts | 349° |
| 2026-05-04 20:13 | 41.32377 | 1.15293 | 37959 ft | 473 kts | 350° |
| 2026-05-04 20:14 | 41.38951 | 1.14603 | 37960 ft | 474 kts | 350° |
| 2026-05-04 20:14 | 41.45521 | 1.13913 | 37935 ft | 472 kts | 350° |
| 2026-05-04 20:15 | 41.52076 | 1.13222 | 37952 ft | 473 kts | 350° |
| 2026-05-04 20:15 | 41.58633 | 1.12529 | 37951 ft | 473 kts | 350° |
| 2026-05-04 20:16 | 41.65199 | 1.11834 | 37952 ft | 473 kts | 350° |
| 2026-05-04 20:16 | 41.71770 | 1.11138 | 37962 ft | 473 kts | 350° |
| 2026-05-04 20:17 | 41.78329 | 1.10441 | 37989 ft | 473 kts | 350° |
| 2026-05-04 20:17 | 41.84906 | 1.09741 | 37976 ft | 474 kts | 350° |
| 2026-05-04 20:18 | 41.91480 | 1.09040 | 37983 ft | 474 kts | 350° |
| 2026-05-04 20:18 | 41.98014 | 1.08341 | 37983 ft | 474 kts | 350° |
| 2026-05-04 20:19 | 42.04592 | 1.07637 | 37977 ft | 474 kts | 350° |
| 2026-05-04 20:19 | 42.11171 | 1.06930 | 37975 ft | 474 kts | 350° |
| 2026-05-04 20:20 | 42.17748 | 1.06223 | 37969 ft | 474 kts | 350° |
| 2026-05-04 20:20 | 42.24335 | 1.05514 | 37943 ft | 475 kts | 350° |
| 2026-05-04 20:21 | 42.30934 | 1.04801 | 37946 ft | 475 kts | 351° |
| 2026-05-04 20:21 | 42.39716 | 1.03851 | 37950 ft | 476 kts | 351° |
| 2026-05-04 20:22 | 42.47382 | 1.03018 | 37953 ft | 475 kts | 351° |
| 2026-05-04 20:22 | 42.52907 | 1.02417 | 37968 ft | 476 kts | 351° |
| 2026-05-04 20:23 | 42.59502 | 1.01699 | 37977 ft | 475 kts | 351° |
| 2026-05-04 20:23 | 42.66063 | 1.00983 | 37993 ft | 475 kts | 351° |
| 2026-05-04 20:24 | 42.72656 | 1.00261 | 37998 ft | 476 kts | 351° |
| 2026-05-04 20:24 | 42.79265 | 0.99535 | 38001 ft | 475 kts | 351° |
| 2026-05-04 20:25 | 42.85879 | 0.98808 | 37996 ft | 476 kts | 351° |
| 2026-05-04 20:25 | 42.92482 | 0.98081 | 37998 ft | 476 kts | 351° |
| 2026-05-04 20:26 | 42.98926 | 0.96732 | 37972 ft | 463 kts | 334° |
| 2026-05-04 20:26 | 43.05022 | 0.93806 | 37981 ft | 466 kts | 336° |
| 2026-05-04 20:27 | 43.11209 | 0.91032 | 37998 ft | 468 kts | 337° |
| 2026-05-04 20:27 | 43.17396 | 0.88265 | 38002 ft | 468 kts | 337° |
| 2026-05-04 20:28 | 43.23580 | 0.85494 | 38020 ft | 468 kts | 337° |
| 2026-05-04 20:28 | 43.29775 | 0.82713 | 38008 ft | 469 kts | 337° |
| 2026-05-04 20:29 | 43.35977 | 0.79923 | 37997 ft | 469 kts | 337° |
| 2026-05-04 20:29 | 43.42175 | 0.77128 | 37999 ft | 469 kts | 337° |
| 2026-05-04 20:30 | 43.48384 | 0.74322 | 38002 ft | 471 kts | 337° |
| 2026-05-04 20:30 | 43.54613 | 0.71502 | 37999 ft | 471 kts | 337° |
| 2026-05-04 20:31 | 43.60838 | 0.68676 | 37993 ft | 471 kts | 337° |
| 2026-05-04 20:31 | 43.67035 | 0.65858 | 37989 ft | 471 kts | 337° |
| 2026-05-04 20:32 | 43.73258 | 0.63021 | 37984 ft | 471 kts | 337° |
| 2026-05-04 20:32 | 43.79494 | 0.60172 | 37984 ft | 471 kts | 337° |
| 2026-05-04 20:33 | 43.85732 | 0.57316 | 37986 ft | 472 kts | 338° |
| 2026-05-04 20:33 | 43.91976 | 0.54451 | 37982 ft | 472 kts | 338° |
| 2026-05-04 20:34 | 43.98171 | 0.51602 | 37974 ft | 472 kts | 338° |
| 2026-05-04 20:34 | 44.04410 | 0.48727 | 37973 ft | 472 kts | 338° |
| 2026-05-04 20:35 | 44.10653 | 0.45843 | 37974 ft | 473 kts | 338° |
| 2026-05-04 20:35 | 44.16906 | 0.42949 | 37966 ft | 473 kts | 338° |
| 2026-05-04 20:36 | 44.23171 | 0.40042 | 37991 ft | 473 kts | 338° |
| 2026-05-04 20:36 | 44.29427 | 0.37133 | 38004 ft | 474 kts | 338° |
| 2026-05-04 20:37 | 44.35687 | 0.34215 | 37979 ft | 474 kts | 338° |
| 2026-05-04 20:37 | 44.41907 | 0.31310 | 37971 ft | 474 kts | 338° |
| 2026-05-04 20:38 | 44.48178 | 0.28374 | 37973 ft | 475 kts | 338° |
| 2026-05-04 20:38 | 44.54454 | 0.25429 | 37972 ft | 475 kts | 338° |
| 2026-05-04 20:39 | 44.60734 | 0.22475 | 37969 ft | 475 kts | 338° |
| 2026-05-04 20:39 | 44.67009 | 0.19517 | 37971 ft | 476 kts | 338° |
| 2026-05-04 20:40 | 44.73294 | 0.16548 | 37967 ft | 476 kts | 338° |
| 2026-05-04 20:40 | 44.79537 | 0.13592 | 37971 ft | 476 kts | 338° |
| 2026-05-04 20:41 | 44.85812 | 0.10613 | 37969 ft | 476 kts | 338° |
| 2026-05-04 20:41 | 44.92087 | 0.07628 | 37971 ft | 476 kts | 338° |
| 2026-05-04 20:42 | 44.98365 | 0.04635 | 37965 ft | 476 kts | 338° |
| 2026-05-04 20:42 | 45.04643 | 0.01634 | 37973 ft | 477 kts | 338° |
| 2026-05-04 20:43 | 45.10935 | -0.01380 | 37986 ft | 476 kts | 338° |
| 2026-05-04 20:43 | 45.17170 | -0.04374 | 37968 ft | 476 kts | 338° |
| 2026-05-04 20:44 | 45.23446 | -0.07394 | 37959 ft | 476 kts | 338° |
| 2026-05-04 20:44 | 45.29726 | -0.10424 | 37974 ft | 477 kts | 338° |
| 2026-05-04 20:45 | 45.36008 | -0.13461 | 37969 ft | 476 kts | 338° |
| 2026-05-04 20:45 | 45.42290 | -0.16505 | 37959 ft | 477 kts | 338° |
| 2026-05-04 20:46 | 45.48561 | -0.19552 | 37959 ft | 477 kts | 338° |
| 2026-05-04 20:46 | 45.54851 | -0.22615 | 37968 ft | 477 kts | 338° |
| 2026-05-04 20:47 | 45.61141 | -0.25685 | 37973 ft | 477 kts | 338° |
| 2026-05-04 20:47 | 45.67389 | -0.28742 | 37969 ft | 477 kts | 338° |
| 2026-05-04 20:48 | 45.73668 | -0.31822 | 37958 ft | 477 kts | 338° |
| 2026-05-04 20:48 | 45.79956 | -0.34913 | 37958 ft | 478 kts | 338° |
| 2026-05-04 20:49 | 45.86244 | -0.38011 | 37950 ft | 478 kts | 338° |
| 2026-05-04 20:49 | 45.92516 | -0.41109 | 37947 ft | 478 kts | 338° |
| 2026-05-04 20:50 | 45.98811 | -0.44226 | 37950 ft | 478 kts | 338° |
| 2026-05-04 20:50 | 46.05093 | -0.47344 | 37950 ft | 478 kts | 338° |
| 2026-05-04 20:51 | 46.11383 | -0.50473 | 37951 ft | 478 kts | 338° |
| 2026-05-04 20:51 | 46.17670 | -0.53609 | 37956 ft | 478 kts | 338° |
| 2026-05-04 20:52 | 46.23956 | -0.56752 | 37949 ft | 477 kts | 338° |
| 2026-05-04 20:52 | 46.30187 | -0.59875 | 37951 ft | 477 kts | 338° |
| 2026-05-04 20:53 | 46.36462 | -0.63027 | 37950 ft | 477 kts | 338° |
| 2026-05-04 20:53 | 46.42744 | -0.66142 | 37947 ft | 477 kts | 342° |
| 2026-05-04 20:54 | 46.49150 | -0.68697 | 37953 ft | 478 kts | 342° |
| 2026-05-04 20:54 | 46.55548 | -0.71330 | 37955 ft | 477 kts | 342° |
| 2026-05-04 20:55 | 46.61895 | -0.73957 | 37955 ft | 477 kts | 342° |
| 2026-05-04 20:55 | 46.68268 | -0.76602 | 37953 ft | 477 kts | 342° |
| 2026-05-04 20:56 | 46.74659 | -0.79260 | 37950 ft | 477 kts | 342° |
| 2026-05-04 20:56 | 46.81047 | -0.81924 | 37969 ft | 477 kts | 342° |
| 2026-05-04 20:57 | 46.87388 | -0.84576 | 37956 ft | 477 kts | 342° |
| 2026-05-04 20:57 | 46.93772 | -0.87252 | 37956 ft | 477 kts | 342° |
| 2026-05-04 20:58 | 47.00151 | -0.89932 | 37952 ft | 476 kts | 342° |
| 2026-05-04 20:58 | 47.06521 | -0.92616 | 37950 ft | 476 kts | 342° |
| 2026-05-04 20:59 | 47.12892 | -0.95306 | 37947 ft | 476 kts | 342° |
| 2026-05-04 20:59 | 47.19253 | -0.97998 | 37948 ft | 476 kts | 342° |
| 2026-05-04 21:00 | 47.25610 | -1.00697 | 37948 ft | 475 kts | 342° |
| 2026-05-04 21:00 | 47.31924 | -1.03383 | 37953 ft | 475 kts | 342° |
| 2026-05-04 21:01 | 47.38285 | -1.06096 | 37953 ft | 475 kts | 342° |
| 2026-05-04 21:01 | 47.44633 | -1.08810 | 37946 ft | 475 kts | 342° |
| 2026-05-04 21:02 | 47.50990 | -1.11497 | 37942 ft | 475 kts | 346° |
| 2026-05-04 21:02 | 47.57570 | -1.12548 | 37926 ft | 477 kts | 353° |
| 2026-05-04 21:03 | 47.64125 | -1.13490 | 37954 ft | 477 kts | 354° |
| 2026-05-04 21:03 | 47.70741 | -1.14412 | 37947 ft | 476 kts | 354° |
| 2026-05-04 21:04 | 47.77347 | -1.15334 | 37943 ft | 476 kts | 354° |
| 2026-05-04 21:04 | 47.83951 | -1.16258 | 37947 ft | 476 kts | 354° |
| 2026-05-04 21:05 | 47.90544 | -1.17183 | 37949 ft | 476 kts | 354° |
| 2026-05-04 21:05 | 47.97148 | -1.18111 | 37952 ft | 476 kts | 354° |
| 2026-05-04 21:06 | 48.03738 | -1.19040 | 37947 ft | 476 kts | 354° |
| 2026-05-04 21:06 | 48.10330 | -1.19972 | 37957 ft | 476 kts | 354° |
| 2026-05-04 21:07 | 48.16878 | -1.20900 | 37958 ft | 476 kts | 354° |
| 2026-05-04 21:07 | 48.23474 | -1.21836 | 37967 ft | 475 kts | 354° |
| 2026-05-04 21:08 | 48.30042 | -1.22772 | 37961 ft | 474 kts | 354° |
| 2026-05-04 21:08 | 48.36615 | -1.23711 | 37965 ft | 474 kts | 354° |
| 2026-05-04 21:09 | 48.43183 | -1.24651 | 37968 ft | 474 kts | 354° |
| 2026-05-04 21:09 | 48.49744 | -1.25593 | 37967 ft | 472 kts | 354° |
| 2026-05-04 21:10 | 48.56285 | -1.26534 | 37976 ft | 472 kts | 354° |
| 2026-05-04 21:10 | 48.61725 | -1.27319 | 37978 ft | 472 kts | 354° |
| 2026-05-04 21:11 | 48.68265 | -1.28264 | 37984 ft | 471 kts | 354° |
| 2026-05-04 21:11 | 48.74775 | -1.29208 | 37987 ft | 470 kts | 354° |
| 2026-05-04 21:12 | 48.81294 | -1.30156 | 37983 ft | 470 kts | 354° |
| 2026-05-04 21:12 | 48.87809 | -1.31105 | 37986 ft | 470 kts | 354° |
| 2026-05-04 21:13 | 48.94337 | -1.32060 | 37991 ft | 471 kts | 354° |
| 2026-05-04 21:13 | 49.00859 | -1.33015 | 37989 ft | 471 kts | 354° |
| 2026-05-04 21:14 | 49.07386 | -1.33974 | 37995 ft | 471 kts | 354° |
| 2026-05-04 21:14 | 49.13865 | -1.34928 | 37992 ft | 470 kts | 354° |
| 2026-05-04 21:15 | 49.20372 | -1.35889 | 37994 ft | 470 kts | 354° |
| 2026-05-04 21:15 | 49.26879 | -1.36852 | 37994 ft | 470 kts | 354° |
| 2026-05-04 21:16 | 49.33391 | -1.37819 | 37999 ft | 469 kts | 354° |
| 2026-05-04 21:16 | 49.39887 | -1.38786 | 38007 ft | 469 kts | 354° |
| 2026-05-04 21:17 | 49.46395 | -1.39757 | 37672 ft | 469 kts | 354° |
| 2026-05-04 21:17 | 49.49608 | -1.40237 | 37402 ft | 469 kts | 354° |
| 2026-05-04 21:17 | 49.52861 | -1.40724 | 37136 ft | 470 kts | 354° |
| 2026-05-04 21:18 | 49.56117 | -1.41212 | 36997 ft | 469 kts | 354° |
| 2026-05-04 21:18 | 49.59371 | -1.41604 | 37010 ft | 471 kts | 0° |
| 2026-05-04 21:18 | 49.65930 | -1.41057 | 37004 ft | 472 kts | 3° |
| 2026-05-04 21:19 | 49.72489 | -1.40489 | 37024 ft | 472 kts | 3° |
| 2026-05-04 21:19 | 49.79050 | -1.39909 | 37016 ft | 471 kts | 3° |
| 2026-05-04 21:20 | 49.85605 | -1.39327 | 37015 ft | 471 kts | 3° |
| 2026-05-04 21:20 | 49.92114 | -1.38748 | 37016 ft | 471 kts | 3° |
| 2026-05-04 21:21 | 49.98666 | -1.38162 | 37012 ft | 471 kts | 4° |
| 2026-05-04 21:21 | 50.05147 | -1.36757 | 37007 ft | 471 kts | 9° |
| 2026-05-04 21:22 | 50.11645 | -1.35154 | 37021 ft | 473 kts | 9° |
| 2026-05-04 21:22 | 50.18136 | -1.33538 | 37008 ft | 473 kts | 9° |
| 2026-05-04 21:23 | 50.24637 | -1.31914 | 37295 ft | 473 kts | 9° |
| 2026-05-04 21:23 | 50.27885 | -1.31101 | 37587 ft | 472 kts | 9° |
| 2026-05-04 21:23 | 50.31129 | -1.30288 | 37879 ft | 471 kts | 9° |
| 2026-05-04 21:24 | 50.34363 | -1.29476 | 38052 ft | 471 kts | 9° |
| 2026-05-04 21:24 | 50.37597 | -1.28664 | 38021 ft | 470 kts | 9° |
| 2026-05-04 21:24 | 50.44040 | -1.27042 | 38021 ft | 468 kts | 9° |
| 2026-05-04 21:25 | 50.50471 | -1.25514 | 38004 ft | 467 kts | 2° |
| 2026-05-04 21:25 | 50.56921 | -1.25631 | 37996 ft | 467 kts | 359° |
| 2026-05-04 21:26 | 50.63427 | -1.25771 | 38020 ft | 467 kts | 359° |
| 2026-05-04 21:26 | 50.69936 | -1.25919 | 38018 ft | 466 kts | 359° |
| 2026-05-04 21:27 | 50.76418 | -1.26067 | 38016 ft | 466 kts | 359° |
| 2026-05-04 21:27 | 50.82884 | -1.26216 | 38020 ft | 466 kts | 359° |
| 2026-05-04 21:28 | 50.89331 | -1.26364 | 38029 ft | 465 kts | 359° |
| 2026-05-04 21:28 | 50.95801 | -1.26513 | 38021 ft | 465 kts | 359° |
| 2026-05-04 21:29 | 51.02272 | -1.26663 | 38019 ft | 465 kts | 359° |
| 2026-05-04 21:29 | 51.08742 | -1.26813 | 38020 ft | 465 kts | 359° |
| 2026-05-04 21:30 | 51.15212 | -1.26963 | 38020 ft | 465 kts | 359° |
| 2026-05-04 21:30 | 51.21684 | -1.27114 | 38024 ft | 465 kts | 359° |
| 2026-05-04 21:31 | 51.31339 | -1.27340 | 38023 ft | 465 kts | 359° |
| 2026-05-04 21:32 | 51.37805 | -1.27492 | 38041 ft | 462 kts | 359° |
| 2026-05-04 21:32 | 51.44234 | -1.27643 | 38042 ft | 462 kts | 359° |
| 2026-05-04 21:33 | 51.50664 | -1.27795 | 38044 ft | 462 kts | 359° |
| 2026-05-04 21:33 | 51.56985 | -1.27945 | 38048 ft | 462 kts | 359° |
| 2026-05-04 21:33 | 51.60161 | -1.28020 | 37830 ft | 460 kts | 359° |
| 2026-05-04 21:34 | 51.63368 | -1.28096 | 36959 ft | 463 kts | 359° |
| 2026-05-04 21:34 | 51.66596 | -1.28173 | 36184 ft | 464 kts | 359° |
| 2026-05-04 21:34 | 51.69817 | -1.28250 | 35672 ft | 460 kts | 359° |
| 2026-05-04 21:34 | 51.72957 | -1.28325 | 35277 ft | 453 kts | 359° |
| 2026-05-04 21:35 | 51.76095 | -1.28400 | 34815 ft | 449 kts | 359° |
| 2026-05-04 21:35 | 51.79205 | -1.28474 | 34288 ft | 447 kts | 359° |
| 2026-05-04 21:35 | 51.82303 | -1.28549 | 33665 ft | 445 kts | 358° |
| 2026-05-04 21:35 | 51.85399 | -1.28623 | 33060 ft | 444 kts | 358° |
| 2026-05-04 21:36 | 51.88477 | -1.28697 | 32557 ft | 440 kts | 358° |
| 2026-05-04 21:36 | 51.91528 | -1.28771 | 32048 ft | 437 kts | 358° |
| 2026-05-04 21:36 | 51.94609 | -1.28845 | 31558 ft | 449 kts | 358° |
| 2026-05-04 21:36 | 51.97757 | -1.28921 | 31033 ft | 452 kts | 358° |
| 2026-05-04 21:37 | 52.00913 | -1.28997 | 30504 ft | 455 kts | 358° |
| 2026-05-04 21:37 | 52.04081 | -1.29074 | 29953 ft | 454 kts | 358° |
| 2026-05-04 21:37 | 52.07224 | -1.29150 | 29380 ft | 447 kts | 358° |
| 2026-05-04 21:37 | 52.10276 | -1.29224 | 28887 ft | 441 kts | 358° |
| 2026-05-04 21:38 | 52.13327 | -1.29298 | 28403 ft | 437 kts | 358° |
| 2026-05-04 21:38 | 52.16357 | -1.29371 | 27921 ft | 434 kts | 358° |
| 2026-05-04 21:38 | 52.19367 | -1.29445 | 27447 ft | 431 kts | 358° |
| 2026-05-04 21:38 | 52.22352 | -1.29518 | 26979 ft | 428 kts | 358° |
| 2026-05-04 21:39 | 52.25315 | -1.29589 | 26519 ft | 425 kts | 358° |
| 2026-05-04 21:39 | 52.28264 | -1.29662 | 26069 ft | 422 kts | 357° |
| 2026-05-04 21:39 | 52.31184 | -1.29734 | 25619 ft | 418 kts | 357° |
| 2026-05-04 21:39 | 52.34083 | -1.29805 | 25177 ft | 415 kts | 357° |
| 2026-05-04 21:40 | 52.36963 | -1.29876 | 24745 ft | 413 kts | 357° |
| 2026-05-04 21:40 | 52.39827 | -1.29946 | 24317 ft | 411 kts | 356° |
| 2026-05-04 21:40 | 52.42687 | -1.30017 | 23888 ft | 409 kts | 356° |
| 2026-05-04 21:40 | 52.45526 | -1.30087 | 23434 ft | 407 kts | 356° |
| 2026-05-04 21:41 | 52.48349 | -1.30155 | 22956 ft | 404 kts | 356° |
| 2026-05-04 21:41 | 52.51150 | -1.30225 | 22540 ft | 401 kts | 356° |
| 2026-05-04 21:41 | 52.53894 | -1.30293 | 22146 ft | 398 kts | 356° |
| 2026-05-04 21:41 | 52.56650 | -1.30361 | 21733 ft | 395 kts | 356° |
| 2026-05-04 21:42 | 52.59391 | -1.30428 | 21327 ft | 392 kts | 356° |
| 2026-05-04 21:42 | 52.62112 | -1.30496 | 20925 ft | 389 kts | 356° |
| 2026-05-04 21:42 | 52.64808 | -1.30563 | 20533 ft | 386 kts | 356° |
| 2026-05-04 21:42 | 52.67490 | -1.30630 | 20148 ft | 383 kts | 356° |
| 2026-05-04 21:43 | 52.70083 | -1.31216 | 19633 ft | 378 kts | 338° |
| 2026-05-04 21:43 | 52.72386 | -1.33159 | 19305 ft | 369 kts | 326° |
| 2026-05-04 21:43 | 52.74569 | -1.35355 | 18935 ft | 366 kts | 326° |
| 2026-05-04 21:43 | 52.76740 | -1.37543 | 18536 ft | 364 kts | 327° |
| 2026-05-04 21:44 | 52.78894 | -1.39734 | 18080 ft | 362 kts | 327° |
| 2026-05-04 21:44 | 52.81034 | -1.41917 | 17637 ft | 360 kts | 326° |
| 2026-05-04 21:44 | 52.83149 | -1.44080 | 17221 ft | 357 kts | 326° |
| 2026-05-04 21:44 | 52.85252 | -1.46234 | 16815 ft | 353 kts | 326° |
| 2026-05-04 21:45 | 52.87330 | -1.48365 | 16414 ft | 350 kts | 326° |
| 2026-05-04 21:45 | 52.89397 | -1.50488 | 16015 ft | 348 kts | 326° |
| 2026-05-04 21:45 | 52.91441 | -1.52589 | 15625 ft | 345 kts | 326° |
| 2026-05-04 21:45 | 52.93478 | -1.54685 | 15226 ft | 344 kts | 326° |
| 2026-05-04 21:46 | 52.95503 | -1.56772 | 14840 ft | 342 kts | 326° |
| 2026-05-04 21:46 | 52.97514 | -1.58846 | 14448 ft | 340 kts | 326° |
| 2026-05-04 21:46 | 52.99515 | -1.60912 | 14059 ft | 338 kts | 326° |
| 2026-05-04 21:46 | 53.01505 | -1.62969 | 13651 ft | 336 kts | 326° |
| 2026-05-04 21:47 | 53.03488 | -1.65020 | 13232 ft | 334 kts | 326° |
| 2026-05-04 21:47 | 53.05408 | -1.67144 | 12819 ft | 330 kts | 317° |
| 2026-05-04 21:47 | 53.06918 | -1.69929 | 12425 ft | 327 kts | 309° |
| 2026-05-04 21:47 | 53.08390 | -1.72787 | 12076 ft | 325 kts | 309° |
| 2026-05-04 21:48 | 53.09857 | -1.75628 | 11718 ft | 323 kts | 309° |
| 2026-05-04 21:48 | 53.11315 | -1.78455 | 11351 ft | 321 kts | 309° |
| 2026-05-04 21:48 | 53.12767 | -1.81273 | 10955 ft | 319 kts | 309° |
| 2026-05-04 21:48 | 53.14203 | -1.84063 | 10615 ft | 317 kts | 310° |
| 2026-05-04 21:49 | 53.15630 | -1.86840 | 10263 ft | 312 kts | 310° |
| 2026-05-04 21:49 | 53.17029 | -1.89565 | 10084 ft | 304 kts | 310° |
| 2026-05-04 21:49 | 53.18372 | -1.92185 | 10085 ft | 290 kts | 310° |
| 2026-05-04 21:49 | 53.19671 | -1.94719 | 9728 ft | 286 kts | 310° |
| 2026-05-04 21:50 | 53.20968 | -1.97254 | 9099 ft | 288 kts | 310° |
| 2026-05-04 21:50 | 53.22262 | -1.99785 | 8578 ft | 286 kts | 310° |
| 2026-05-04 21:50 | 53.23545 | -2.02279 | 8175 ft | 280 kts | 312° |
| 2026-05-04 21:50 | 53.24934 | -2.04382 | 8056 ft | 264 kts | 322° |
| 2026-05-04 21:51 | 53.26462 | -2.05951 | 7903 ft | 252 kts | 333° |
| 2026-05-04 21:51 | 53.28142 | -2.06583 | 7476 ft | 252 kts | 5° |
| 2026-05-04 21:51 | 53.29826 | -2.05771 | 7056 ft | 254 kts | 19° |
| 2026-05-04 21:51 | 53.31462 | -2.04676 | 6665 ft | 252 kts | 20° |
| 2026-05-04 21:52 | 53.33092 | -2.03604 | 6253 ft | 251 kts | 20° |
| 2026-05-04 21:52 | 53.34715 | -2.02530 | 5850 ft | 250 kts | 20° |
| 2026-05-04 21:52 | 53.36325 | -2.01464 | 5468 ft | 248 kts | 20° |
| 2026-05-04 21:52 | 53.37927 | -2.00403 | 5088 ft | 246 kts | 20° |
| 2026-05-04 21:53 | 53.39515 | -1.99350 | 4764 ft | 244 kts | 18° |
| 2026-05-04 21:53 | 53.41158 | -1.99084 | 4442 ft | 237 kts | 343° |
| 2026-05-04 21:53 | 53.42524 | -2.00352 | 4364 ft | 224 kts | 321° |
| 2026-05-04 21:53 | 53.43749 | -2.02001 | 4012 ft | 227 kts | 320° |
| 2026-05-04 21:54 | 53.44962 | -2.03665 | 3793 ft | 224 kts | 320° |
| 2026-05-04 21:54 | 53.46169 | -2.05330 | 3497 ft | 224 kts | 320° |
| 2026-05-04 21:54 | 53.47422 | -2.06842 | 3216 ft | 223 kts | 338° |
| 2026-05-04 21:54 | 53.48938 | -2.06944 | 2981 ft | 221 kts | 19° |
| 2026-05-04 21:55 | 53.50098 | -2.05316 | 2925 ft | 223 kts | 61° |
| 2026-05-04 21:55 | 53.50335 | -2.02761 | 2927 ft | 228 kts | 102° |
| 2026-05-04 21:55 | 53.49593 | -2.00434 | 2959 ft | 231 kts | 134° |
| 2026-05-04 21:55 | 53.48240 | -1.98979 | 2953 ft | 233 kts | 164° |
| 2026-05-04 21:56 | 53.46679 | -1.98786 | 2950 ft | 224 kts | 193° |
| 2026-05-04 21:56 | 53.45372 | -1.99841 | 3007 ft | 198 kts | 224° |
| 2026-05-04 21:56 | 53.44687 | -2.01685 | 2956 ft | 183 kts | 254° |
| 2026-05-04 21:56 | 53.44325 | -2.03729 | 2979 ft | 181 kts | 255° |
| 2026-05-04 21:57 | 53.43975 | -2.05708 | 2956 ft | 174 kts | 255° |
| 2026-05-04 21:57 | 53.43634 | -2.07636 | 2849 ft | 172 kts | 254° |
| 2026-05-04 21:57 | 53.43252 | -2.09533 | 2648 ft | 171 kts | 255° |
| 2026-05-04 21:57 | 53.42834 | -2.11405 | 2438 ft | 172 kts | 247° |
| 2026-05-04 21:58 | 53.42247 | -2.13121 | 2263 ft | 166 kts | 239° |
| 2026-05-04 21:58 | 53.41578 | -2.14666 | 2028 ft | 161 kts | 236° |
| 2026-05-04 21:58 | 53.40889 | -2.16130 | 1813 ft | 160 kts | 235° |
| 2026-05-04 21:58 | 53.40225 | -2.17509 | 1631 ft | 149 kts | 234° |
| 2026-05-04 21:59 | 53.39587 | -2.18826 | 1403 ft | 144 kts | 234° |
| 2026-05-04 21:59 | 53.38964 | -2.20106 | 1230 ft | 143 kts | 232° |
| 2026-05-04 21:59 | 53.38331 | -2.21369 | 1016 ft | 143 kts | 233° |
| 2026-05-04 21:59 | 53.37716 | -2.22662 | 796 ft | 141 kts | 232° |
| 2026-05-04 22:00 | 53.37300 | -2.23506 | 648 ft | 141 kts | 232° |
| 2026-05-04 22:00 | 53.36682 | -2.24773 | 480 ft | 141 kts | 233° |
| 2026-05-04 22:00 | 53.35870 | -2.26475 | 275 ft | 131 kts | 230° |
| 2026-05-04 22:00 | 53.35532 | -2.27173 | 253 ft | 101 kts | 230° |
| 2026-05-04 22:01 | 53.35176 | -2.27908 | 238 ft | 53 kts | 231° |
| 2026-05-04 22:01 | 53.35106 | -2.28162 | 236 ft | 19 kts | 314° |
| 2026-05-04 22:01 | 53.35259 | -2.28186 | 236 ft | 27 kts | 6° |
| 2026-05-04 22:01 | 53.35430 | -2.28154 | 238 ft | 18 kts | 11° |
| 2026-05-04 22:02 | 53.35555 | -2.28042 | 238 ft | 22 kts | 48° |
| 2026-05-04 22:02 | 53.35647 | -2.27891 | 244 ft | 18 kts | 16° |
| 2026-05-04 22:02 | 53.35778 | -2.27869 | 251 ft | 21 kts | 7° |
| 2026-05-04 22:02 | 53.35929 | -2.27851 | 258 ft | 21 kts | 352° |
| 2026-05-04 22:03 | 53.36056 | -2.27996 | 257 ft | 24 kts | 318° |
| 2026-05-04 22:03 | 53.36181 | -2.28192 | 257 ft | 26 kts | 315° |
| 2026-05-04 22:03 | 53.36290 | -2.28378 | 257 ft | 17 kts | 314° |
| 2026-05-04 22:03 | 53.36360 | -2.28468 | 257 ft | 13 kts | 343° |
| 2026-05-04 22:04 | 53.36411 | -2.28489 | 257 ft | 0 kts | 338° |
| 2026-05-04 22:04 | 53.36412 | -2.28490 | 257 ft | 0 kts | 337° |
| 2026-05-04 22:04 | 53.36414 | -2.28491 | 257 ft | 1 kts | 337° |
| 2026-05-04 22:04 | 53.36430 | -2.28507 | 257 ft | 4 kts | 320° |
| 2026-05-04 22:05 | 53.36460 | -2.28555 | 257 ft | 8 kts | 314° |
| 2026-05-04 22:05 | 53.36506 | -2.28634 | 257 ft | 11 kts | 315° |
| 2026-05-04 22:05 | 53.36569 | -2.28740 | 257 ft | 15 kts | 314° |
| 2026-05-04 22:05 | 53.36645 | -2.28773 | 257 ft | 10 kts | 16° |
| 2026-05-04 22:06 | 53.36696 | -2.28722 | 257 ft | 5 kts | 43° |
| 2026-05-04 22:06 | 53.36715 | -2.28697 | 257 ft | 2 kts | 26° |
| 2026-05-04 22:06 | 53.36724 | -2.28694 | 257 ft | 0 kts | 3° |
| 2026-05-04 22:07 | 53.36729 | -2.28695 | 257 ft | 2 kts | 351° |
| 2026-05-04 22:07 | 53.36751 | -2.28721 | 257 ft | 5 kts | 311° |
| 2026-05-04 22:07 | 53.36763 | -2.28744 | 257 ft | 3 kts | 314° |
| 2026-05-04 22:08 | 53.36766 | -2.28748 | 257 ft | 0 kts | 314° |